George Murphy

Scout - Oxford United
23 Apr 2028
Sonntag
Verarbeitung

Persönlichkeit

Anpassungsfähigkeit (4) Ehrgeiz (8) Kontroverse (11) Loyalität (7) Druck (7) Professionalität (5) Fairness (7) Temperament (17)

Profil

Trainerstil Demokratisch
Lizenz Nationale B
Entschlossenheit 4
Menschenführung 5
Motivation 9
Disziplin 11
Arbeitszufriedenheit
100%
Ermüdung
0%
Rolle Scout
Gehalt 27.3K p/W
Vertrag 14.03.2030

Leistung

Verhalten Gut
Trainingseffektivität
44%
Spielerentwicklung
45%
Verletzungsprävention
20%
Taktische Umsetzung
20%

Letzte Ereignisse

Nahm an einer Scouting-Besprechung teil 7T her
Nahm an einer Scouting-Besprechung teil 14T her
Nahm an einer Scouting-Besprechung teil 21T her
Nahm an einer Scouting-Besprechung teil 28T her
Nahm an einer Scouting-Besprechung teil 35T her
Nahm an einer Scouting-Besprechung teil 42T her
Nahm an einer Scouting-Besprechung teil 49T her
Nahm an einer Scouting-Besprechung teil 56T her

Aktuell beobachtet

121
Spieler Verein Status Fähigkeit Vertrauen Beobachtet Zuletzt beobachtet Letzte Stimme
Mao Hosoya Santos Verhandlung 134 / 135 67% 1 01.01.2028 -
Iker Benito Casa Pia Verhandlung 121 / 122 66% 1 02.08.2027 -
Othmane Maamma Watford Aktiv 135 / 124 40% 1 19.07.2027 -
Nestory Irankunda Watford Aktiv 118 / 127 40% 1 19.07.2027 -
Ivan Giraldo Valencia Aktiv 127 / 127 40% 5 05.07.2027 -
Salvador Blopá Sporting CP Aktiv 122 / 120 40% 2 05.07.2027 -
Kiani Inge Groningen Aktiv 108 / 115 40% 1 05.07.2027 -
Gonçalo Oliveira Benfica Aktiv 117 / 123 40% 3 28.06.2027 -
Leandro Martins Benfica Aktiv 100 / 105 40% 2 21.06.2027 -
Tommaso Cecotti Carpi Aktiv 96 / 102 40% 2 21.06.2027 -
Rhys Chadwick AFC Wimbledon Aktiv 95 / 116 40% 1 14.06.2027 -
Tiago Freitas Benfica Aktiv 107 / 122 40% 1 14.06.2027 -
Johannes Eggestein Orlando City Verhandlung 125 / 125 68% 1 01.06.2027 -
John Mercado Sparta Prague Verhandlung 122 / 123 67% 1 01.06.2027 -
Jefry Zapata Aldosivi Verhandlung 118 / 118 66% 1 01.06.2027 -
Víctor Guzmán Sporting CP Aktiv 98 / 106 40% 7 30.05.2027 -
Teboho Zwane Ajax Cape Town Aktiv 103 / 101 40% 3 30.05.2027 -
Fábio Jaló Barnsley Aktiv 103 / 109 40% 1 30.05.2027 -
Dani Ángel Sampdoria Aktiv 100 / 99 40% 3 29.05.2027 -
Borna Knezović Casarano Aktiv 101 / 110 40% 2 29.05.2027 -
Idris Ajiya Nasarawa United Aktiv 89 / 90 40% 2 29.05.2027 -
Pietro Reggiori Pro Patria Aktiv 87 / 103 40% 2 28.05.2027 -
Sindre Walle Egeli Udinese Aktiv 138 / 137 40% 7 28.05.2027 -
Riley Owen Stevenage Aktiv 101 / 106 40% 2 28.05.2027 -
Elijas Gunnergård Ortan Ahrobiznes Aktiv 79 / 81 40% 2 28.05.2027 -
Máximo Seggio Crawley Town Aktiv 92 / 81 40% 3 26.05.2027 -
Godwin Oham Warri Wolves Aktiv 87 / 97 40% 1 25.05.2027 -
Teboho Mokoena Black Aces Aktiv 93 / 90 40% 1 25.05.2027 -
Miloš Jovičić Zabbar St. Patrick Aktiv 92 / 92 40% 5 24.05.2027 -
Charlie Lennon Barnsley Aktiv 78 / 96 40% 3 24.05.2027 -
Joel Orlando Almagro Aktiv 115 / 114 40% 2 21.05.2027 -
Dilan Neves Benfica Aktiv 84 / 93 40% 3 21.05.2027 -
Luka Andrade Montevideo City Torque Aktiv 104 / 114 40% 1 21.05.2027 -
Abubakar Garba Nasarawa United Aktiv 101 / 92 40% 5 20.05.2027 -
Lwanda Mbanjwa Platinum Stars Aktiv 83 / 87 40% 6 20.05.2027 -
Rafael Moreno Atletico Venezuela Aktiv 110 / 114 40% 2 20.05.2027 -
George Brown Sheffield Wednesday Aktiv 105 / 104 40% 9 19.05.2027 -
Leo Castledine Middlesbrough Aktiv 128 / 131 40% 4 16.05.2027 -
Chineme Chinonso Ikorodu City Aktiv 95 / 94 40% 5 14.05.2027 -
Risilanu Ismail El-Kanemi Warriors Aktiv 78 / 84 40% 1 13.05.2027 -
Alen Vukaj Alcione Milano Aktiv 91 / 91 40% 1 13.05.2027 -
Giuseppe Coppola Picerno Aktiv 98 / 106 40% 1 13.05.2027 -
Edwin Asamoah Berekum Chelsea Aktiv 91 / 89 40% 2 11.05.2027 -
Jenson Jones Walsall Aktiv 93 / 99 40% 2 11.05.2027 -
Josh King Newcastle United Aktiv 131 / 150 40% 1 11.05.2027 -
Stanley Amon Bayelsa United Aktiv 77 / 93 40% 3 07.05.2027 -
Sergey Gaiduk Salyut Aktiv 74 / 76 40% 3 06.05.2027 -
Rivaldo Mkhize Black Aces Aktiv 89 / 79 40% 1 06.05.2027 -
David Damboama El-Kanemi Warriors Aktiv 82 / 80 40% 1 06.05.2027 -
Ben Ahmed Kohili Paradou Aktiv 111 / 119 40% 5 03.05.2027 -
Alessandro Zoboletti Sambenedettese Aktiv 98 / 93 40% 1 03.05.2027 -
Sascha Britschgi AC Milan Aktiv 111 / 129 40% 1 03.05.2027 -
Roberto Iliev Slavia Sofia Aktiv 103 / 108 40% 4 29.04.2027 -
Riyad Idrissi Cagliari Aktiv 122 / 121 40% 1 29.04.2027 -
Kazunari Kita Real Sociedad Aktiv 97 / 100 40% 1 29.04.2027 -
Maren Kefas Plateau United Aktiv 82 / 83 40% 6 27.04.2027 -
Martim Cunha Porto Aktiv 104 / 109 40% 2 23.04.2027 -
Eliás Montiel Borussia Dortmund Aktiv 132 / 133 40% 1 23.04.2027 -
Darlvin Yeboah Bechem United Aktiv 95 / 87 40% 3 20.04.2027 -
Lorenzo De Leo Renate Aktiv 94 / 107 40% 2 20.04.2027 -
Ryan Oné Sheffield United Aktiv 117 / 123 40% 3 18.04.2027 -
Sidiki Chérif Newcastle United Aktiv 125 / 128 40% 2 18.04.2027 -
Chimobi Igwilo Rangers International Aktiv 76 / 96 40% 1 18.04.2027 -
Luke Baartman Ajax Cape Town Aktiv 95 / 119 40% 5 17.04.2027 -
Bongani Jali Free State Stars Aktiv 86 / 100 40% 4 17.04.2027 -
Rhys Walters Port Vale Aktiv 95 / 98 40% 1 17.04.2027 -
Lucas Bergvall Tottenham Aktiv 137 / 149 40% 3 15.04.2027 -
Caleb Yirenkyi Coventry City Aktiv 133 / 146 40% 2 15.04.2027 -
Mathys Tel Tottenham Aktiv 150 / 150 40% 3 12.04.2027 -
Will Lankshear Middlesbrough Aktiv 122 / 121 40% 1 12.04.2027 -
Miguel Figueiredo Benfica Aktiv 109 / 115 40% 1 07.04.2027 -
Gabriel Lekan Kun Khalifat Aktiv 79 / 103 40% 1 07.04.2027 -
Fletcher Holman Swindon Town Aktiv 87 / 82 40% 2 05.04.2027 -
Rocco Vata Watford Aktiv 129 / 117 40% 3 02.04.2027 -
Wessel Kuhn PSV Aktiv 107 / 111 40% 1 29.03.2027 -
Eduardo Lozano Botafogo Aktiv 142 / 154 40% 2 28.03.2027 -
Germán Barbas Burgos Aktiv 95 / 110 40% 2 26.03.2027 -
Ousseynou Seck Randers Aktiv 116 / 126 40% 1 26.03.2027 -
Naledi Hlongwane Wa All Stars Aktiv 91 / 86 40% 2 20.03.2027 -
Afriyie Sulemana WAFA Aktiv 93 / 85 40% 2 15.03.2027 -
Zane Albarus Shrewsbury Town Aktiv 96 / 94 40% 2 15.03.2027 -
Francis Gomez Cardiff City Aktiv 109 / 117 40% 1 14.03.2027 -
Jan Bürger Northampton Town Aktiv 114 / 109 40% 1 14.03.2027 -
Axel Frugone Athletic Bilbao Aktiv 119 / 120 40% 1 07.03.2027 -
Dean Jali Platinum Stars Aktiv 96 / 96 40% 1 06.03.2027 -
James Dornelly Peterborough United Aktiv 110 / 101 40% 1 05.03.2027 -
Ezra Mayers West Ham United Aktiv 124 / 131 40% 1 03.03.2027 -
Per Kloosterboer Utrecht Aktiv 103 / 98 40% 1 01.03.2027 -
Juan Manuel Sanabria Real Salt Lake Aktiv 135 / 115 40% 1 25.12.2026 -
Alfie Doughty Millwall Aktiv 134 / 129 40% 1 25.12.2026 -
Edoardo Bove Watford Aktiv 130 / 128 40% 1 25.12.2026 -
Joseph George Aigle Royal de Moungo Aktiv 82 / 98 40% 1 24.12.2026 -
Michael Noumon Heart of Lions Aktiv 89 / 83 40% 1 23.12.2026 -
Romano Floriani Mussolini Blackpool Aktiv 129 / 130 40% 1 22.12.2026 -
Welington Southampton Aktiv 121 / 121 40% 2 21.12.2026 -
Harry Clarke Preston Aktiv 128 / 131 40% 2 21.12.2026 -
Dara O'Shea Ipswich Town Aktiv 145 / 139 40% 2 20.12.2026 -
Nicolas Madsen Queens Park Rangers Aktiv 137 / 133 40% 1 20.12.2026 -
Raoul Bellanova Atalanta Aktiv 145 / 145 40% 1 18.12.2026 -
Oliver Skipp Leicester City Aktiv 127 / 136 40% 1 18.12.2026 -
Pelle Mattsson Norwich City Aktiv 129 / 131 40% 1 18.12.2026 -
Alfie Devine Preston Aktiv 116 / 115 40% 1 17.12.2026 -
Dennis Cirkin Queens Park Rangers Aktiv 122 / 128 40% 1 17.12.2026 -
Facundo Mura Inter Miami CF Aktiv 126 / 117 40% 1 17.12.2026 -
Lewis Gibson Preston Aktiv 124 / 121 40% 1 12.12.2026 -
Toby Collyer West Bromwich Albion Aktiv 125 / 134 40% 1 12.12.2026 -
Jacob Greaves Ipswich Town Aktiv 136 / 137 40% 2 10.12.2026 -
Assane Diao Como Aktiv 143 / 143 40% 3 02.12.2026 -
Morrison Agyemang Charlotte Football Club Aktiv 119 / 112 40% 1 01.12.2026 -
Matías Contrera Hrvatski Dragovoljac Aktiv 94 / 94 40% 3 30.11.2026 -
Cemran Dansin Orlando Pirates Aktiv 98 / 121 40% 1 28.11.2026 -
Kabu Agyemang Raymond Bechem United Aktiv 80 / 80 40% 1 12.11.2026 -
Ezekiel Kwame Alladoh Philadelphia Union Aktiv 115 / 114 40% 1 10.11.2026 -
Isaac Inusah Wa All Stars Aktiv 115 / 107 40% 1 09.11.2026 -
André Luiz Sporting Kansas City Aktiv 138 / 127 40% 1 09.11.2026 -
Mateus Mané Burnley Aktiv 133 / 134 40% 1 07.11.2026 -
Carlos Vicente Birmingham Aktiv 141 / 145 40% 2 05.11.2026 -
Martín Ojeda Orlando City Aktiv 147 / 133 40% 1 05.11.2026 -
Tadeo Allende Inter Miami CF Aktiv 124 / 112 40% 1 05.11.2026 -
Marcelo Allende Mamelodi Sundowns Aktiv 133 / 131 40% 1 04.11.2026 -
Amin Boudri Los Angeles Football Club Aktiv 112 / 139 40% 1 02.11.2026 -